createdAt,value
2022-09-03T00:00:57.835Z,93.10
2022-09-03T00:02:39.316Z,93.30
2022-09-03T00:04:21.379Z,93.30
2022-09-03T00:06:11.525Z,93.30
2022-09-03T00:07:50.495Z,93.40
2022-09-03T00:09:28.165Z,93.50
2022-09-03T00:11:13.230Z,93.60
2022-09-03T00:12:46.642Z,93.90
2022-09-03T00:14:24.015Z,93.70
2022-09-03T00:15:59.779Z,93.80
2022-09-03T00:17:35.980Z,93.70
2022-09-03T00:19:09.636Z,93.70
2022-09-03T00:20:47.908Z,93.60
2022-09-03T00:22:25.799Z,93.60
2022-09-03T00:24:01.374Z,93.80
2022-09-03T00:25:39.411Z,93.80
2022-09-03T00:27:17.239Z,93.90
2022-09-03T00:28:56.093Z,94.10
2022-09-03T00:30:33.693Z,94.10
2022-09-03T00:32:12.266Z,94.30
2022-09-03T00:33:47.642Z,94.40
2022-09-03T00:35:25.982Z,94.60
2022-09-03T00:37:00.293Z,94.60
2022-09-03T00:38:34.592Z,94.70
2022-09-03T00:40:16.199Z,94.60
2022-09-03T00:42:06.769Z,94.70
2022-09-03T00:43:54.830Z,94.80
2022-09-03T00:45:34.908Z,94.60
2022-09-03T00:47:15.995Z,94.50
2022-09-03T00:49:09.940Z,94.50
2022-09-03T00:50:53.939Z,94.40
2022-09-03T00:52:45.793Z,94.40
2022-09-03T00:54:25.490Z,94.30
2022-09-03T00:56:05.310Z,94.40
2022-09-03T00:57:54.659Z,94.50
2022-09-03T00:59:36.409Z,94.60
2022-09-03T01:01:19.105Z,94.60
2022-09-03T01:03:07.846Z,94.70
2022-09-03T01:04:52.757Z,94.70
2022-09-03T01:06:33.064Z,94.70
2022-09-03T01:08:18.712Z,94.80
2022-09-03T01:09:58.383Z,95.00
2022-09-03T01:11:46.988Z,95.00
2022-09-03T01:13:24.943Z,95.20
2022-09-03T01:15:09.746Z,95.30
2022-09-03T01:16:51.630Z,95.40
2022-09-03T01:18:34.480Z,95.30
2022-09-03T01:20:28.787Z,95.40
2022-09-03T01:22:11.194Z,95.50
2022-09-03T01:24:20.457Z,95.60
2022-09-03T01:26:04.767Z,95.80
2022-09-03T01:27:47.748Z,95.70
2022-09-03T01:29:28.767Z,95.70
2022-09-03T01:31:11.094Z,95.80
2022-09-03T01:32:50.109Z,95.90
2022-09-03T01:34:33.965Z,96.00
2022-09-03T01:36:08.663Z,96.10
2022-09-03T01:37:51.610Z,96.10
2022-09-03T01:39:33.187Z,96.10
2022-09-03T01:41:31.625Z,96.20
2022-09-03T01:43:16.918Z,96.20
2022-09-03T01:45:31.829Z,96.20
2022-09-03T01:47:14.641Z,96.30
2022-09-03T01:48:59.867Z,96.30
2022-09-03T01:50:42.633Z,96.40
2022-09-03T01:52:20.479Z,96.60
2022-09-03T01:54:21.718Z,96.70
2022-09-03T01:56:09.048Z,96.80
2022-09-03T01:57:51.851Z,96.90
2022-09-03T01:59:30.864Z,97.10
2022-09-03T02:01:14.830Z,97.30
2022-09-03T02:02:53.482Z,97.40
2022-09-03T02:04:28.650Z,97.50
2022-09-03T02:06:00.905Z,97.50
2022-09-03T02:07:36.380Z,97.60
2022-09-03T02:09:09.312Z,97.80
2022-09-03T02:10:46.290Z,97.90
2022-09-03T02:12:20.259Z,98.00
2022-09-03T02:13:55.995Z,98.10
2022-09-03T02:15:31.106Z,98.30
2022-09-03T02:17:08.095Z,98.40
2022-09-03T02:18:44.277Z,98.40
2022-09-03T02:20:21.073Z,98.30
2022-09-03T02:21:57.652Z,98.30
2022-09-03T02:23:30.931Z,98.40
2022-09-03T02:25:03.739Z,98.50
2022-09-03T02:26:37.431Z,98.80
2022-09-03T02:28:16.981Z,98.70
2022-09-03T02:29:50.813Z,98.80
2022-09-03T02:31:23.764Z,99.10
2022-09-03T02:32:58.103Z,98.90
2022-09-03T02:34:31.643Z,98.90
2022-09-03T02:36:07.259Z,99.10
2022-09-03T02:37:40.453Z,99.10
2022-09-03T02:39:13.851Z,99.10
2022-09-03T02:40:46.781Z,99.30
2022-09-03T02:42:19.132Z,99.40
2022-09-03T02:43:57.669Z,99.50
2022-09-03T02:45:31.502Z,99.60
2022-09-03T02:47:05.454Z,99.80
2022-09-03T02:48:39.810Z,99.90
2022-09-03T02:50:12.734Z,99.90
2022-09-03T02:51:46.349Z,99.90
2022-09-03T02:53:19.294Z,99.90
2022-09-03T02:54:52.210Z,99.90
2022-09-03T02:56:27.958Z,99.90
2022-09-03T02:58:01.367Z,99.90
2022-09-03T02:59:34.374Z,99.90
2022-09-03T03:01:07.628Z,99.90
2022-09-03T03:02:40.437Z,99.90
2022-09-03T03:04:14.815Z,99.90
2022-09-03T03:05:50.748Z,99.90
2022-09-03T03:07:23.736Z,99.90
2022-09-03T03:08:57.639Z,99.90
2022-09-03T03:10:31.166Z,99.80
2022-09-03T03:12:04.733Z,99.80
2022-09-03T03:13:37.701Z,99.80
2022-09-03T03:15:11.295Z,99.80
2022-09-03T03:16:43.381Z,99.80
2022-09-03T03:18:17.467Z,99.90
2022-09-03T03:19:51.927Z,99.90
2022-09-03T03:21:24.932Z,99.90
2022-09-03T03:22:57.840Z,99.90
2022-09-03T03:24:30.751Z,99.90
2022-09-03T03:26:04.321Z,99.90
2022-09-03T03:27:43.201Z,99.90
2022-09-03T03:29:18.471Z,99.90
2022-09-03T03:30:53.006Z,99.90
2022-09-03T03:32:25.996Z,99.90
2022-09-03T03:34:00.994Z,99.90
2022-09-03T03:35:35.271Z,99.90
2022-09-03T03:37:08.221Z,99.90
2022-09-03T03:38:42.052Z,99.90
2022-09-03T03:40:15.360Z,99.90
2022-09-03T03:41:48.106Z,99.90
2022-09-03T03:43:21.338Z,99.90
2022-09-03T03:44:54.253Z,99.90
2022-09-03T03:46:31.126Z,99.90
2022-09-03T03:48:04.489Z,99.90
2022-09-03T03:49:37.252Z,99.90
2022-09-03T03:51:11.857Z,99.90
2022-09-03T03:52:44.810Z,99.90
2022-09-03T03:54:17.954Z,99.90
2022-09-03T03:55:57.657Z,99.90
2022-09-03T03:57:31.933Z,99.90
2022-09-03T03:59:05.466Z,99.90
2022-09-03T04:00:38.016Z,99.90
2022-09-03T04:02:10.949Z,99.90
2022-09-03T04:03:44.403Z,99.90
2022-09-03T04:05:17.482Z,99.90
2022-09-03T04:06:57.379Z,99.90
2022-09-03T04:08:30.610Z,99.90
2022-09-03T04:10:03.626Z,99.90
2022-09-03T04:11:36.546Z,99.90
2022-09-03T04:13:09.447Z,99.90
2022-09-03T04:14:43.010Z,99.90
2022-09-03T04:16:18.122Z,99.90
2022-09-03T04:17:51.155Z,99.90
2022-09-03T04:19:24.214Z,99.90
2022-09-03T04:21:04.190Z,99.90
2022-09-03T04:22:38.469Z,99.90
2022-09-03T04:24:11.988Z,99.90
2022-09-03T04:25:44.973Z,99.90
2022-09-03T04:27:17.914Z,99.90
2022-09-03T04:28:51.273Z,99.90
2022-09-03T04:30:23.237Z,99.90
2022-09-03T04:32:10.052Z,99.90
2022-09-03T04:33:44.491Z,99.90
2022-09-03T04:35:16.626Z,99.90
2022-09-03T04:36:52.840Z,99.90
2022-09-03T04:38:29.953Z,99.90
2022-09-03T04:40:03.237Z,99.90
2022-09-03T04:41:36.061Z,99.90
2022-09-03T04:43:08.966Z,99.90
2022-09-03T04:44:41.190Z,99.90
2022-09-03T04:46:18.404Z,99.90
2022-09-03T04:47:58.338Z,99.90
2022-09-03T04:49:31.277Z,99.90
2022-09-03T04:51:06.427Z,99.90
2022-09-03T04:52:39.377Z,99.90
2022-09-03T04:54:13.666Z,99.90
2022-09-03T04:55:46.618Z,99.90
2022-09-03T04:57:19.587Z,99.90
2022-09-03T04:58:56.637Z,99.90
2022-09-03T05:00:28.883Z,99.90
2022-09-03T05:02:01.762Z,99.90
2022-09-03T05:03:34.845Z,99.90
2022-09-03T05:05:07.271Z,99.90
2022-09-03T05:06:40.211Z,99.90
2022-09-03T05:08:13.262Z,99.90
2022-09-03T05:09:47.858Z,99.90
2022-09-03T05:11:20.630Z,99.90
2022-09-03T05:13:00.534Z,99.90
2022-09-03T05:14:33.646Z,99.90
2022-09-03T05:16:07.980Z,99.90
2022-09-03T05:17:41.032Z,99.90
2022-09-03T05:19:14.035Z,99.90
2022-09-03T05:20:46.932Z,99.90
2022-09-03T05:22:21.314Z,99.90
2022-09-03T05:23:54.808Z,99.90
2022-09-03T05:25:29.102Z,99.90
2022-09-03T05:27:02.287Z,99.90
2022-09-03T05:28:36.266Z,99.90
2022-09-03T05:30:10.072Z,99.90
2022-09-03T05:31:43.079Z,99.90
2022-09-03T05:33:16.476Z,99.90
2022-09-03T05:34:49.473Z,99.90
2022-09-03T05:36:25.496Z,99.90
2022-09-03T05:38:00.783Z,99.90
2022-09-03T05:39:33.749Z,99.90
2022-09-03T05:41:09.861Z,99.70
2022-09-03T05:42:42.898Z,99.60
2022-09-03T05:44:15.975Z,99.60
2022-09-03T05:45:49.077Z,99.40
2022-09-03T05:47:21.979Z,99.30
2022-09-03T05:48:54.858Z,99.20
2022-09-03T05:50:28.011Z,99.20
2022-09-03T05:52:00.994Z,99.00
2022-09-03T05:53:36.020Z,98.90
2022-09-03T05:55:13.294Z,99.30
2022-09-03T05:56:47.941Z,99.00
2022-09-03T05:58:20.894Z,98.90
2022-09-03T05:59:53.982Z,98.70
2022-09-03T06:01:28.962Z,98.70
2022-09-03T06:03:02.105Z,98.50
2022-09-03T06:04:35.197Z,98.30
2022-09-03T06:06:08.662Z,98.10
2022-09-03T06:07:42.044Z,97.90
2022-09-03T06:09:18.019Z,97.80
2022-09-03T06:10:51.294Z,97.70
2022-09-03T06:12:25.424Z,97.60
2022-09-03T06:14:00.291Z,97.60
2022-09-03T06:15:33.479Z,97.40
2022-09-03T06:17:06.519Z,97.30
2022-09-03T06:18:39.469Z,97.20
2022-09-03T06:20:13.387Z,97.20
2022-09-03T06:21:47.804Z,97.20
2022-09-03T06:23:20.258Z,97.30
2022-09-03T06:24:53.486Z,97.20
2022-09-03T06:26:28.132Z,97.40
2022-09-03T06:28:02.587Z,97.30
2022-09-03T06:29:36.284Z,96.60
2022-09-03T06:31:11.644Z,96.20
2022-09-03T06:32:45.519Z,96.30
2022-09-03T06:34:19.430Z,96.50
2022-09-03T06:35:57.550Z,96.40
2022-09-03T06:37:30.556Z,96.30
2022-09-03T06:39:03.691Z,96.00
2022-09-03T06:40:36.669Z,95.80
2022-09-03T06:42:10.044Z,95.40
2022-09-03T06:43:43.534Z,95.20
2022-09-03T06:45:17.681Z,95.20
2022-09-03T06:46:52.378Z,95.20
2022-09-03T06:48:24.892Z,95.20
2022-09-03T06:49:59.006Z,95.10
2022-09-03T06:51:34.057Z,94.80
2022-09-03T06:53:07.085Z,94.90
2022-09-03T06:54:40.700Z,94.50
2022-09-03T06:56:16.912Z,94.30
2022-09-03T06:57:52.890Z,94.20
2022-09-03T06:59:28.308Z,94.20
2022-09-03T07:01:06.834Z,94.20
2022-09-03T07:02:44.768Z,93.70
2022-09-03T07:04:20.482Z,93.80
2022-09-03T07:05:52.640Z,93.90
2022-09-03T07:07:25.749Z,94.10
2022-09-03T07:09:00.250Z,94.10
2022-09-03T07:10:34.912Z,94.20
2022-09-03T07:12:08.218Z,94.30
2022-09-03T07:13:41.902Z,94.30
2022-09-03T07:15:16.995Z,94.20
2022-09-03T07:16:50.862Z,94.30
2022-09-03T07:18:23.006Z,94.20
2022-09-03T07:19:56.074Z,94.30
2022-09-03T07:21:31.455Z,94.30
2022-09-03T07:23:04.594Z,94.10
2022-09-03T07:24:37.751Z,94.10
2022-09-03T07:26:13.695Z,94.00
2022-09-03T07:27:47.316Z,93.40
2022-09-03T07:29:21.559Z,93.20
2022-09-03T07:31:01.781Z,92.70
2022-09-03T07:32:34.995Z,92.30
2022-09-03T07:34:09.991Z,91.90
2022-09-03T07:35:43.385Z,91.60
2022-09-03T07:37:18.361Z,91.10
2022-09-03T07:38:52.111Z,90.90
2022-09-03T07:40:25.130Z,90.50
2022-09-03T07:41:58.197Z,90.20
2022-09-03T07:43:35.389Z,89.70
2022-09-03T07:45:10.744Z,89.30
2022-09-03T07:46:47.336Z,89.10
2022-09-03T07:48:20.348Z,89.10
2022-09-03T07:49:53.516Z,88.50
2022-09-03T07:51:27.814Z,88.10
2022-09-03T07:53:00.816Z,87.80
2022-09-03T07:54:33.778Z,87.30
2022-09-03T07:56:08.362Z,87.20
2022-09-03T07:57:41.402Z,87.50
2022-09-03T07:59:14.413Z,88.10
2022-09-03T08:00:48.553Z,88.30
2022-09-03T08:02:23.378Z,88.30
2022-09-03T08:03:57.039Z,88.90
2022-09-03T08:05:30.025Z,88.90
2022-09-03T08:07:03.818Z,88.80
2022-09-03T08:08:37.923Z,88.60
2022-09-03T08:10:11.245Z,88.70
2022-09-03T08:11:45.189Z,89.20
2022-09-03T08:13:18.369Z,89.00
2022-09-03T08:14:51.310Z,88.90
2022-09-03T08:16:24.559Z,88.70
2022-09-03T08:18:03.525Z,87.80
2022-09-03T08:19:40.203Z,88.30
2022-09-03T08:21:15.826Z,87.40
2022-09-03T08:22:49.601Z,87.80
2022-09-03T08:24:24.702Z,87.40
2022-09-03T08:26:01.285Z,87.20
2022-09-03T08:27:35.289Z,87.00
2022-09-03T08:29:08.438Z,86.90
2022-09-03T08:30:41.263Z,86.70
2022-09-03T08:32:15.271Z,86.80
2022-09-03T08:33:51.340Z,86.40
2022-09-03T08:35:24.447Z,86.10
2022-09-03T08:36:59.021Z,85.60
2022-09-03T08:38:32.373Z,85.20
2022-09-03T08:40:06.337Z,85.10
2022-09-03T08:41:58.207Z,84.30
2022-09-03T08:43:32.171Z,84.00
2022-09-03T08:45:08.755Z,83.70
2022-09-03T08:46:51.486Z,83.80
2022-09-03T08:48:26.817Z,83.60
2022-09-03T08:50:05.312Z,84.00
2022-09-03T08:51:39.198Z,83.80
2022-09-03T08:53:18.956Z,84.10
2022-09-03T08:54:54.182Z,84.30
2022-09-03T08:56:29.904Z,84.30
2022-09-03T08:58:06.906Z,84.10
2022-09-03T08:59:39.894Z,84.60
2022-09-03T09:01:24.277Z,84.60
2022-09-03T09:03:08.838Z,84.00
2022-09-03T09:04:54.796Z,84.50
2022-09-03T09:06:36.290Z,84.30
2022-09-03T09:08:18.159Z,85.00
2022-09-03T09:09:58.719Z,84.30
2022-09-03T09:11:47.087Z,83.50
2022-09-03T09:13:30.062Z,83.60
2022-09-03T09:15:11.758Z,83.30
2022-09-03T09:16:52.161Z,83.00
2022-09-03T09:18:32.190Z,83.10
2022-09-03T09:20:14.327Z,82.20
2022-09-03T09:21:54.156Z,82.40
2022-09-03T09:23:32.401Z,82.20
2022-09-03T09:25:14.274Z,82.50
2022-09-03T09:26:49.347Z,82.30
2022-09-03T09:28:24.340Z,82.40
2022-09-03T09:30:02.768Z,83.00
2022-09-03T09:31:36.002Z,82.80
2022-09-03T09:33:13.211Z,82.90
2022-09-03T09:34:51.815Z,83.00
2022-09-03T09:36:26.106Z,83.00
2022-09-03T09:38:01.267Z,83.40
2022-09-03T09:39:34.349Z,84.00
2022-09-03T09:41:11.070Z,83.70
2022-09-03T09:42:44.151Z,83.10
2022-09-03T09:44:21.954Z,82.60
2022-09-03T09:45:55.612Z,82.50
2022-09-03T09:47:31.610Z,82.70
2022-09-03T09:49:08.843Z,82.70
2022-09-03T09:50:41.891Z,83.20
2022-09-03T09:52:17.234Z,82.80
2022-09-03T09:54:02.685Z,82.80
2022-09-03T09:55:35.090Z,83.10
2022-09-03T09:57:17.862Z,82.30
2022-09-03T09:58:52.653Z,82.40
2022-09-03T10:00:25.770Z,83.40
2022-09-03T10:02:13.731Z,82.60
2022-09-03T10:03:57.192Z,82.50
2022-09-03T10:05:33.586Z,82.60
2022-09-03T10:07:16.343Z,82.70
2022-09-03T10:08:51.138Z,82.70
2022-09-03T10:10:25.634Z,83.10
2022-09-03T10:12:11.043Z,83.20
2022-09-03T10:13:48.558Z,83.60
2022-09-03T10:15:27.152Z,83.50
2022-09-03T10:17:06.120Z,83.40
2022-09-03T10:18:45.755Z,83.60
2022-09-03T10:20:27.940Z,83.80
2022-09-03T10:22:08.605Z,83.90
2022-09-03T10:23:51.605Z,84.00
2022-09-03T10:25:30.247Z,84.10
2022-09-03T10:27:03.459Z,84.60
2022-09-03T10:28:41.314Z,84.60
2022-09-03T10:30:16.134Z,84.50
2022-09-03T10:32:02.160Z,84.20
2022-09-03T10:33:40.588Z,84.20
2022-09-03T10:35:23.068Z,83.90
2022-09-03T10:37:04.049Z,83.90
2022-09-03T10:38:37.992Z,83.90
2022-09-03T10:40:36.303Z,83.20
2022-09-03T10:42:20.120Z,83.20
2022-09-03T10:44:12.929Z,83.30
2022-09-03T10:45:54.899Z,83.60
2022-09-03T10:47:41.102Z,83.60
2022-09-03T10:49:35.594Z,83.50
2022-09-03T10:51:15.259Z,82.80
2022-09-03T10:53:07.959Z,82.60
2022-09-03T10:54:56.324Z,82.40
2022-09-03T10:56:36.169Z,82.60
2022-09-03T10:58:30.729Z,82.40
2022-09-03T11:00:10.152Z,81.90
2022-09-03T11:01:51.625Z,81.50
2022-09-03T11:03:47.987Z,81.60
2022-09-03T11:05:25.030Z,81.20
2022-09-03T11:07:03.401Z,80.90
2022-09-03T11:08:44.161Z,80.60
2022-09-03T11:10:21.857Z,80.30
2022-09-03T11:12:01.727Z,80.10
2022-09-03T11:13:40.137Z,79.50
2022-09-03T11:15:25.169Z,79.40
2022-09-03T11:17:06.742Z,79.60
2022-09-03T11:18:44.759Z,79.50
2022-09-03T11:20:21.650Z,79.20
2022-09-03T11:21:55.616Z,79.00
2022-09-03T11:23:30.917Z,78.80
2022-09-03T11:25:05.538Z,79.00
2022-09-03T11:26:39.581Z,78.80
2022-09-03T11:28:23.990Z,78.60
2022-09-03T11:30:03.382Z,79.00
2022-09-03T11:31:48.086Z,78.20
2022-09-03T11:33:24.683Z,78.40
2022-09-03T11:34:58.170Z,78.40
2022-09-03T11:36:34.453Z,78.30
2022-09-03T11:38:23.473Z,78.40
2022-09-03T11:40:00.658Z,78.40
2022-09-03T11:41:36.243Z,78.80
2022-09-03T11:43:15.672Z,79.00
2022-09-03T11:44:52.731Z,79.20
2022-09-03T11:46:31.775Z,79.00
2022-09-03T11:48:19.153Z,78.60
2022-09-03T11:49:53.947Z,78.30
2022-09-03T11:51:37.816Z,78.10
2022-09-03T11:53:24.363Z,78.60
2022-09-03T11:54:57.774Z,79.00
2022-09-03T11:56:32.576Z,79.00
2022-09-03T11:58:13.607Z,79.10
2022-09-03T11:59:48.646Z,79.30
2022-09-03T12:01:24.582Z,80.10
2022-09-03T12:03:02.899Z,80.20
2022-09-03T12:04:43.525Z,80.20
2022-09-03T12:06:37.420Z,80.50
2022-09-03T12:08:33.528Z,80.40
2022-09-03T12:10:20.291Z,80.20
2022-09-03T12:12:06.099Z,80.30
2022-09-03T12:13:52.346Z,80.10
2022-09-03T12:15:43.037Z,79.90
2022-09-03T12:17:28.250Z,80.10
2022-09-03T12:19:07.548Z,80.40
2022-09-03T12:20:46.104Z,79.90
2022-09-03T12:22:21.546Z,79.80
2022-09-03T12:23:58.072Z,80.00
2022-09-03T12:25:30.825Z,79.90
2022-09-03T12:27:03.904Z,80.10
2022-09-03T12:28:37.736Z,80.10
2022-09-03T12:30:16.646Z,79.40
2022-09-03T12:31:51.545Z,79.20
2022-09-03T12:33:25.999Z,78.50
2022-09-03T12:34:59.865Z,78.60
2022-09-03T12:36:39.054Z,78.50
2022-09-03T12:38:18.582Z,78.60
2022-09-03T12:40:09.142Z,78.30
2022-09-03T12:41:56.944Z,78.10
2022-09-03T12:43:39.144Z,77.90
2022-09-03T12:45:15.841Z,77.40
2022-09-03T12:47:32.625Z,77.20
2022-09-03T12:50:56.170Z,77.00
2022-09-03T12:52:32.903Z,77.70
2022-09-03T12:54:09.729Z,77.60
2022-09-03T12:55:47.533Z,78.30
2022-09-03T12:57:24.780Z,77.30
2022-09-03T12:59:00.639Z,77.70
2022-09-03T13:00:36.636Z,77.60
2022-09-03T13:02:19.125Z,77.70
2022-09-03T13:03:57.876Z,77.80
2022-09-03T13:05:35.177Z,77.50
2022-09-03T13:07:13.143Z,77.50
2022-09-03T13:08:49.404Z,77.40
2022-09-03T13:10:28.542Z,77.30
2022-09-03T13:12:05.501Z,77.20
2022-09-03T13:13:40.605Z,77.20
2022-09-03T13:15:21.393Z,77.30
2022-09-03T13:17:16.333Z,77.50
2022-09-03T13:18:57.022Z,77.10
2022-09-03T13:20:36.120Z,77.00
2022-09-03T13:22:17.784Z,78.00
2022-09-03T13:24:04.093Z,77.50
2022-09-03T13:25:52.423Z,77.40
2022-09-03T13:27:33.807Z,77.50
2022-09-03T13:29:35.274Z,77.40
2022-09-03T13:31:23.184Z,77.50
2022-09-03T13:33:01.931Z,77.90
2022-09-03T13:34:41.321Z,78.10
2022-09-03T13:36:18.995Z,78.10
2022-09-03T13:37:59.702Z,78.00
2022-09-03T13:39:40.978Z,78.30
2022-09-03T13:41:20.508Z,78.30
2022-09-03T13:42:57.591Z,78.30
2022-09-03T13:44:42.336Z,78.50
2022-09-03T13:46:22.164Z,79.00
2022-09-03T13:48:19.292Z,79.10
2022-09-03T13:50:18.476Z,79.30
2022-09-03T13:51:57.293Z,79.20
2022-09-03T13:53:41.980Z,79.40
2022-09-03T13:55:21.189Z,79.00
2022-09-03T13:57:00.822Z,79.10
2022-09-03T13:58:38.591Z,79.20
2022-09-03T14:00:14.029Z,79.60
2022-09-03T14:02:14.214Z,79.20
2022-09-03T14:03:51.373Z,78.80
2022-09-03T14:05:45.870Z,78.60
2022-09-03T14:07:26.270Z,79.00
2022-09-03T14:09:08.086Z,79.10
2022-09-03T14:10:55.735Z,79.50
2022-09-03T14:12:38.849Z,79.40
2022-09-03T14:14:21.568Z,79.60
2022-09-03T14:16:04.323Z,79.20
2022-09-03T14:17:43.608Z,79.40
2022-09-03T14:19:21.973Z,79.80
2022-09-03T14:21:02.688Z,79.70
2022-09-03T14:22:49.839Z,79.50
2022-09-03T14:24:29.213Z,79.60
2022-09-03T14:26:06.579Z,80.20
2022-09-03T14:27:40.615Z,80.20
2022-09-03T14:29:16.842Z,80.50
2022-09-03T14:30:59.984Z,80.50
2022-09-03T14:32:42.393Z,81.00
2022-09-03T14:34:28.078Z,81.50
2022-09-03T14:36:18.669Z,81.60
2022-09-03T14:38:25.247Z,81.80
2022-09-03T14:40:05.920Z,82.60
2022-09-03T14:42:19.568Z,83.20
2022-09-03T14:44:08.312Z,83.30
2022-09-03T14:46:23.147Z,83.70
2022-09-03T14:48:14.441Z,83.70
2022-09-03T14:49:57.771Z,84.20
2022-09-03T14:51:50.645Z,84.60
2022-09-03T14:53:58.415Z,84.70
2022-09-03T14:56:09.826Z,84.60
2022-09-03T14:58:09.217Z,84.70
2022-09-03T15:00:04.623Z,85.00
2022-09-03T15:01:39.543Z,85.00
2022-09-03T15:03:26.646Z,84.20
2022-09-03T15:05:12.252Z,84.80
2022-09-03T15:07:01.542Z,85.00
2022-09-03T15:08:51.938Z,85.40
2022-09-03T15:10:32.907Z,85.70
2022-09-03T15:12:11.813Z,86.10
2022-09-03T15:13:49.773Z,86.50
2022-09-03T15:15:27.347Z,86.80
2022-09-03T15:17:21.443Z,87.40
2022-09-03T15:19:07.342Z,87.30
2022-09-03T15:20:50.687Z,87.60
2022-09-03T15:22:39.044Z,87.70
2022-09-03T15:24:20.778Z,88.00
2022-09-03T15:26:17.749Z,88.80
2022-09-03T15:28:03.657Z,89.70
2022-09-03T15:29:53.630Z,90.00
2022-09-03T15:31:36.052Z,90.10
2022-09-03T15:33:22.207Z,90.20
2022-09-03T15:35:05.203Z,90.10
2022-09-03T15:36:42.540Z,90.30
2022-09-03T15:38:27.116Z,90.50
2022-09-03T15:40:05.620Z,90.60
2022-09-03T15:41:47.401Z,90.70
2022-09-03T15:43:23.504Z,91.00
2022-09-03T15:45:03.548Z,91.00
2022-09-03T15:46:48.341Z,91.20
2022-09-03T15:48:30.405Z,91.30
2022-09-03T15:50:10.598Z,91.40
2022-09-03T15:51:50.790Z,91.30
2022-09-03T15:53:35.079Z,91.50
2022-09-03T15:55:13.992Z,91.50
2022-09-03T15:56:53.873Z,91.50
2022-09-03T15:58:34.205Z,91.70
2022-09-03T16:00:10.788Z,91.50
2022-09-03T16:01:53.416Z,91.60
2022-09-03T16:03:40.037Z,91.60
2022-09-03T16:05:19.084Z,91.80
2022-09-03T16:07:00.616Z,91.90
2022-09-03T16:08:45.267Z,92.00
2022-09-03T16:10:24.596Z,92.00
2022-09-03T16:12:07.479Z,92.10
2022-09-03T16:14:04.541Z,92.30
2022-09-03T16:15:42.785Z,92.30
2022-09-03T16:17:27.801Z,92.30
2022-09-03T16:19:07.984Z,92.50
2022-09-03T16:20:44.996Z,92.80
2022-09-03T16:22:27.686Z,93.50
2022-09-03T16:24:06.770Z,94.20
2022-09-03T16:25:50.581Z,94.80
2022-09-03T16:27:26.270Z,95.40
2022-09-03T16:29:04.214Z,95.80
2022-09-03T16:30:52.976Z,96.80
2022-09-03T16:32:40.464Z,98.50
2022-09-03T16:34:23.235Z,99.90
2022-09-03T16:36:04.899Z,99.90
2022-09-03T16:37:51.755Z,99.90
2022-09-03T16:39:39.007Z,99.90
2022-09-03T16:41:22.037Z,99.90
2022-09-03T16:43:23.633Z,99.90
2022-09-03T16:45:11.811Z,99.90
2022-09-03T16:46:51.350Z,99.90
2022-09-03T16:48:32.290Z,99.90
2022-09-03T16:50:19.154Z,99.90
2022-09-03T16:51:57.314Z,99.90
2022-09-03T16:53:44.289Z,99.90
2022-09-03T16:55:26.107Z,99.90
2022-09-03T16:57:17.074Z,99.90
2022-09-03T16:59:00.578Z,99.90
2022-09-03T17:00:47.527Z,99.90
2022-09-03T17:02:54.675Z,99.90
2022-09-03T17:04:48.038Z,99.90
2022-09-03T17:06:37.836Z,99.90
2022-09-03T17:08:20.600Z,99.90
2022-09-03T17:10:01.558Z,99.90
2022-09-03T17:11:45.853Z,99.90
2022-09-03T17:13:42.941Z,99.90
2022-09-03T17:15:46.856Z,99.90
2022-09-03T17:17:34.535Z,99.90
2022-09-03T17:19:16.382Z,99.90
2022-09-03T17:20:56.143Z,99.90
2022-09-03T17:22:43.005Z,99.90
2022-09-03T17:24:31.914Z,99.90
2022-09-03T17:26:12.957Z,99.90
2022-09-03T17:27:51.380Z,99.90
2022-09-03T17:29:40.407Z,99.90
2022-09-03T17:31:28.959Z,99.90
2022-09-03T17:33:35.097Z,99.90
2022-09-03T17:35:14.275Z,99.90
2022-09-03T17:36:59.952Z,99.90
2022-09-03T17:39:11.085Z,99.90
2022-09-03T17:40:58.419Z,99.90
2022-09-03T17:42:41.750Z,99.90
2022-09-03T17:44:26.087Z,99.90
2022-09-03T17:46:13.331Z,99.90
2022-09-03T17:48:12.992Z,99.90
2022-09-03T17:49:49.074Z,99.90
2022-09-03T17:51:46.065Z,99.90
2022-09-03T17:53:26.884Z,99.90
2022-09-03T17:55:12.767Z,99.90
2022-09-03T17:56:57.504Z,99.90
2022-09-03T17:58:36.311Z,99.90
2022-09-03T18:00:13.380Z,99.90
2022-09-03T18:01:51.738Z,99.90
2022-09-03T18:03:32.856Z,99.90
2022-09-03T18:05:17.863Z,99.90
2022-09-03T18:06:57.269Z,99.90
2022-09-03T18:08:37.399Z,99.90
2022-09-03T18:10:20.957Z,99.90
2022-09-03T18:12:06.368Z,99.90
2022-09-03T18:13:51.511Z,99.90
2022-09-03T18:15:33.513Z,99.90
2022-09-03T18:17:09.858Z,99.90
2022-09-03T18:18:47.671Z,99.90
2022-09-03T18:20:41.366Z,99.90
2022-09-03T18:22:31.914Z,99.90
2022-09-03T18:24:36.344Z,99.90
2022-09-03T18:26:33.312Z,99.90
2022-09-03T18:28:29.161Z,99.90
2022-09-03T18:30:24.125Z,99.90
2022-09-03T18:32:16.199Z,99.90
2022-09-03T18:34:06.729Z,99.90
2022-09-03T18:35:57.600Z,99.90
2022-09-03T18:37:48.913Z,99.90
2022-09-03T18:39:44.605Z,99.90
2022-09-03T18:41:59.694Z,99.90
2022-09-03T18:43:56.523Z,99.90
2022-09-03T18:48:20.746Z,99.90
2022-09-03T18:50:22.649Z,99.90
2022-09-03T18:52:21.278Z,99.90
2022-09-03T18:54:25.974Z,99.90
2022-09-03T18:56:22.175Z,99.90
2022-09-03T18:58:23.957Z,99.90
2022-09-03T19:00:29.002Z,99.90
2022-09-03T19:02:28.282Z,99.90
2022-09-03T19:04:32.020Z,99.90
2022-09-03T19:06:34.637Z,99.90
2022-09-03T19:08:33.784Z,99.90
2022-09-03T19:10:29.107Z,99.90
2022-09-03T19:12:33.849Z,99.90
2022-09-03T19:14:30.570Z,99.90
2022-09-03T19:16:28.279Z,99.90
2022-09-03T19:18:28.184Z,99.90
2022-09-03T19:20:28.563Z,99.90
2022-09-03T19:22:26.411Z,99.90
2022-09-03T19:24:21.107Z,99.90
2022-09-03T19:26:18.875Z,99.90
2022-09-03T19:28:24.438Z,99.90
2022-09-03T19:30:23.011Z,99.90
2022-09-03T19:32:19.687Z,99.90
2022-09-03T19:34:22.738Z,99.90
2022-09-03T19:36:24.200Z,99.90
2022-09-03T19:38:24.782Z,99.90
2022-09-03T19:40:28.736Z,99.90
2022-09-03T19:42:26.313Z,99.90
2022-09-03T19:44:31.720Z,99.90
2022-09-03T19:46:30.174Z,99.90
2022-09-03T19:48:30.313Z,99.90
2022-09-03T19:50:31.930Z,99.90
2022-09-03T19:52:31.767Z,99.90
2022-09-03T19:54:24.391Z,99.90
2022-09-03T19:56:17.495Z,99.90
2022-09-03T19:58:32.554Z,99.90
2022-09-03T20:00:32.968Z,99.90
2022-09-03T20:02:24.111Z,99.90
2022-09-03T20:04:17.537Z,99.90
2022-09-03T20:06:11.222Z,99.90
2022-09-03T20:08:04.358Z,99.90
2022-09-03T20:09:59.728Z,99.90
2022-09-03T20:11:32.953Z,99.90
2022-09-03T20:13:08.759Z,99.90
2022-09-03T20:14:41.078Z,99.90
2022-09-03T20:16:22.061Z,99.90
2022-09-03T20:18:02.806Z,99.90
2022-09-03T20:19:50.489Z,99.90
2022-09-03T20:21:31.284Z,99.90
2022-09-03T20:23:12.853Z,99.90
2022-09-03T20:24:59.022Z,99.90
2022-09-03T20:26:41.836Z,99.90
2022-09-03T20:28:30.257Z,99.90
2022-09-03T20:30:05.426Z,99.90
2022-09-03T20:31:47.528Z,99.90
2022-09-03T20:33:33.221Z,99.90
2022-09-03T20:35:13.099Z,99.90
2022-09-03T20:36:57.094Z,99.90
2022-09-03T20:38:54.573Z,99.90
2022-09-03T20:40:34.527Z,99.90
2022-09-03T20:42:41.418Z,99.90
2022-09-03T20:44:29.626Z,99.90
2022-09-03T20:46:14.890Z,99.90
2022-09-03T20:48:08.285Z,99.90
2022-09-03T20:49:53.278Z,99.90
2022-09-03T20:51:33.256Z,99.90
2022-09-03T20:53:16.295Z,99.90
2022-09-03T20:55:05.917Z,99.90
2022-09-03T20:56:55.530Z,99.90
2022-09-03T20:58:36.021Z,99.90
2022-09-03T21:00:12.978Z,99.90
2022-09-03T21:01:55.975Z,99.90
2022-09-03T21:03:36.700Z,99.90
2022-09-03T21:05:19.001Z,99.90
2022-09-03T21:07:00.975Z,99.90
2022-09-03T21:09:01.014Z,99.90
2022-09-03T21:10:42.302Z,99.90
2022-09-03T21:12:22.638Z,99.90
2022-09-03T21:14:04.309Z,99.90
2022-09-03T21:15:46.579Z,99.90
2022-09-03T21:17:31.806Z,99.90
2022-09-03T21:19:11.629Z,99.90
2022-09-03T21:20:51.387Z,99.90
2022-09-03T21:22:32.860Z,99.90
2022-09-03T21:24:09.892Z,99.90
2022-09-03T21:25:49.901Z,99.90
2022-09-03T21:27:26.697Z,99.90
2022-09-03T21:29:05.877Z,99.90
2022-09-03T21:30:42.617Z,99.90
2022-09-03T21:32:19.717Z,99.90
2022-09-03T21:33:56.805Z,99.90
2022-09-03T21:35:33.799Z,99.90
2022-09-03T21:37:11.363Z,99.90
2022-09-03T21:38:49.284Z,99.90
2022-09-03T21:40:26.827Z,99.90
2022-09-03T21:42:08.487Z,99.90
2022-09-03T21:43:48.176Z,99.90
2022-09-03T21:45:29.352Z,99.90